sensor_id;sensor_type;location;lat;lon;timestamp;P1;durP1;ratioP1;P2;durP2;ratioP2
14342;SDS011;7255;53.596;9.960;2022-08-21T00:00:22;7.97;;;5.07;;
14342;SDS011;7255;53.596;9.960;2022-08-21T00:02:53;7.57;;;5.07;;
14342;SDS011;7255;53.596;9.960;2022-08-21T00:05:21;6.57;;;4.47;;
14342;SDS011;7255;53.596;9.960;2022-08-21T00:07:48;6.07;;;5.00;;
14342;SDS011;7255;53.596;9.960;2022-08-21T00:10:14;7.07;;;4.87;;
14342;SDS011;7255;53.596;9.960;2022-08-21T00:12:42;9.23;;;5.40;;
14342;SDS011;7255;53.596;9.960;2022-08-21T00:15:09;7.70;;;5.45;;
14342;SDS011;7255;53.596;9.960;2022-08-21T00:17:38;7.53;;;5.20;;
14342;SDS011;7255;53.596;9.960;2022-08-21T00:20:05;7.43;;;5.15;;
14342;SDS011;7255;53.596;9.960;2022-08-21T00:22:33;9.60;;;5.50;;
14342;SDS011;7255;53.596;9.960;2022-08-21T00:25:00;8.45;;;5.40;;
14342;SDS011;7255;53.596;9.960;2022-08-21T00:27:27;7.18;;;4.30;;
14342;SDS011;7255;53.596;9.960;2022-08-21T00:29:53;7.87;;;4.97;;
14342;SDS011;7255;53.596;9.960;2022-08-21T00:32:20;5.97;;;4.47;;
14342;SDS011;7255;53.596;9.960;2022-08-21T00:34:49;8.15;;;4.60;;
14342;SDS011;7255;53.596;9.960;2022-08-21T00:37:15;7.45;;;5.32;;
14342;SDS011;7255;53.596;9.960;2022-08-21T00:39:41;6.80;;;5.15;;
14342;SDS011;7255;53.596;9.960;2022-08-21T00:42:08;7.22;;;5.50;;
14342;SDS011;7255;53.596;9.960;2022-08-21T00:44:35;10.82;;;5.30;;
14342;SDS011;7255;53.596;9.960;2022-08-21T00:47:01;7.30;;;5.43;;
14342;SDS011;7255;53.596;9.960;2022-08-21T00:49:27;7.00;;;4.90;;
14342;SDS011;7255;53.596;9.960;2022-08-21T00:51:56;8.07;;;5.18;;
14342;SDS011;7255;53.596;9.960;2022-08-21T00:54:26;6.18;;;4.62;;
14342;SDS011;7255;53.596;9.960;2022-08-21T00:56:56;6.15;;;4.78;;
14342;SDS011;7255;53.596;9.960;2022-08-21T00:59:26;6.62;;;4.93;;
14342;SDS011;7255;53.596;9.960;2022-08-21T01:01:55;5.30;;;4.55;;
14342;SDS011;7255;53.596;9.960;2022-08-21T01:04:21;5.25;;;4.75;;
14342;SDS011;7255;53.596;9.960;2022-08-21T01:06:48;5.78;;;5.20;;
14342;SDS011;7255;53.596;9.960;2022-08-21T01:09:17;8.70;;;5.22;;
14342;SDS011;7255;53.596;9.960;2022-08-21T01:11:44;7.35;;;5.03;;
14342;SDS011;7255;53.596;9.960;2022-08-21T01:14:11;9.02;;;5.45;;
14342;SDS011;7255;53.596;9.960;2022-08-21T01:16:39;10.13;;;5.50;;
14342;SDS011;7255;53.596;9.960;2022-08-21T01:19:06;9.32;;;5.70;;
14342;SDS011;7255;53.596;9.960;2022-08-21T01:21:35;6.93;;;5.32;;
14342;SDS011;7255;53.596;9.960;2022-08-21T01:24:02;6.07;;;5.32;;
14342;SDS011;7255;53.596;9.960;2022-08-21T01:26:30;6.90;;;5.35;;
14342;SDS011;7255;53.596;9.960;2022-08-21T01:29:00;8.32;;;5.32;;
14342;SDS011;7255;53.596;9.960;2022-08-21T01:31:35;8.32;;;5.45;;
14342;SDS011;7255;53.596;9.960;2022-08-21T01:34:02;10.50;;;5.30;;
14342;SDS011;7255;53.596;9.960;2022-08-21T01:36:29;9.90;;;6.40;;
14342;SDS011;7255;53.596;9.960;2022-08-21T01:38:56;6.07;;;5.47;;
14342;SDS011;7255;53.596;9.960;2022-08-21T01:41:23;9.65;;;5.85;;
14342;SDS011;7255;53.596;9.960;2022-08-21T01:43:49;8.43;;;6.12;;
14342;SDS011;7255;53.596;9.960;2022-08-21T01:46:16;8.77;;;6.05;;
14342;SDS011;7255;53.596;9.960;2022-08-21T01:48:43;8.27;;;5.43;;
14342;SDS011;7255;53.596;9.960;2022-08-21T01:51:10;7.28;;;5.12;;
14342;SDS011;7255;53.596;9.960;2022-08-21T01:53:37;7.55;;;5.22;;
14342;SDS011;7255;53.596;9.960;2022-08-21T01:56:06;7.78;;;5.57;;
14342;SDS011;7255;53.596;9.960;2022-08-21T01:58:39;7.72;;;5.18;;
14342;SDS011;7255;53.596;9.960;2022-08-21T02:01:06;7.72;;;5.62;;
14342;SDS011;7255;53.596;9.960;2022-08-21T02:03:32;6.45;;;5.05;;
14342;SDS011;7255;53.596;9.960;2022-08-21T02:05:59;8.48;;;4.93;;
14342;SDS011;7255;53.596;9.960;2022-08-21T02:08:25;9.52;;;5.80;;
14342;SDS011;7255;53.596;9.960;2022-08-21T02:10:53;9.77;;;5.00;;
14342;SDS011;7255;53.596;9.960;2022-08-21T02:13:20;8.98;;;5.72;;
14342;SDS011;7255;53.596;9.960;2022-08-21T02:15:47;6.57;;;5.30;;
14342;SDS011;7255;53.596;9.960;2022-08-21T02:18:13;7.93;;;5.43;;
14342;SDS011;7255;53.596;9.960;2022-08-21T02:20:42;8.27;;;5.65;;
14342;SDS011;7255;53.596;9.960;2022-08-21T02:23:12;7.75;;;5.60;;
14342;SDS011;7255;53.596;9.960;2022-08-21T02:25:40;8.52;;;5.72;;
14342;SDS011;7255;53.596;9.960;2022-08-21T02:28:07;7.47;;;5.87;;
14342;SDS011;7255;53.596;9.960;2022-08-21T02:30:37;8.68;;;6.10;;
14342;SDS011;7255;53.596;9.960;2022-08-21T02:33:05;10.45;;;5.75;;
14342;SDS011;7255;53.596;9.960;2022-08-21T02:35:33;6.68;;;5.05;;
14342;SDS011;7255;53.596;9.960;2022-08-21T02:38:00;9.15;;;5.87;;
14342;SDS011;7255;53.596;9.960;2022-08-21T02:40:30;8.57;;;5.90;;
14342;SDS011;7255;53.596;9.960;2022-08-21T02:42:59;15.30;;;6.12;;
14342;SDS011;7255;53.596;9.960;2022-08-21T02:45:26;8.98;;;5.93;;
14342;SDS011;7255;53.596;9.960;2022-08-21T02:47:56;8.50;;;5.80;;
14342;SDS011;7255;53.596;9.960;2022-08-21T02:50:25;9.15;;;5.62;;
14342;SDS011;7255;53.596;9.960;2022-08-21T02:52:53;8.32;;;5.95;;
14342;SDS011;7255;53.596;9.960;2022-08-21T02:55:21;9.38;;;5.68;;
14342;SDS011;7255;53.596;9.960;2022-08-21T02:57:48;7.35;;;5.40;;
14342;SDS011;7255;53.596;9.960;2022-08-21T03:00:16;8.85;;;5.30;;
14342;SDS011;7255;53.596;9.960;2022-08-21T03:02:42;6.82;;;5.43;;
14342;SDS011;7255;53.596;9.960;2022-08-21T03:05:13;6.18;;;5.20;;
14342;SDS011;7255;53.596;9.960;2022-08-21T03:07:40;5.75;;;5.15;;
14342;SDS011;7255;53.596;9.960;2022-08-21T03:10:07;6.75;;;5.22;;
14342;SDS011;7255;53.596;9.960;2022-08-21T03:12:34;8.90;;;5.28;;
14342;SDS011;7255;53.596;9.960;2022-08-21T03:15:01;10.20;;;5.35;;
14342;SDS011;7255;53.596;9.960;2022-08-21T03:17:29;8.35;;;5.80;;
14342;SDS011;7255;53.596;9.960;2022-08-21T03:19:55;7.87;;;5.25;;
14342;SDS011;7255;53.596;9.960;2022-08-21T03:22:23;7.90;;;5.18;;
14342;SDS011;7255;53.596;9.960;2022-08-21T03:24:51;9.40;;;6.18;;
14342;SDS011;7255;53.596;9.960;2022-08-21T03:27:17;8.07;;;5.30;;
14342;SDS011;7255;53.596;9.960;2022-08-21T03:29:44;7.78;;;4.60;;
14342;SDS011;7255;53.596;9.960;2022-08-21T03:32:10;10.88;;;5.90;;
14342;SDS011;7255;53.596;9.960;2022-08-21T03:34:36;7.20;;;5.57;;
14342;SDS011;7255;53.596;9.960;2022-08-21T03:37:03;9.82;;;5.78;;
14342;SDS011;7255;53.596;9.960;2022-08-21T03:39:33;10.05;;;5.68;;
14342;SDS011;7255;53.596;9.960;2022-08-21T03:42:00;8.55;;;5.82;;
14342;SDS011;7255;53.596;9.960;2022-08-21T03:44:26;8.35;;;6.03;;
14342;SDS011;7255;53.596;9.960;2022-08-21T03:46:55;9.00;;;5.87;;
14342;SDS011;7255;53.596;9.960;2022-08-21T03:49:22;6.30;;;5.70;;
14342;SDS011;7255;53.596;9.960;2022-08-21T03:51:49;8.23;;;6.57;;
14342;SDS011;7255;53.596;9.960;2022-08-21T03:54:15;7.32;;;5.32;;
14342;SDS011;7255;53.596;9.960;2022-08-21T03:56:44;9.30;;;5.87;;
14342;SDS011;7255;53.596;9.960;2022-08-21T03:59:10;6.68;;;5.97;;
14342;SDS011;7255;53.596;9.960;2022-08-21T04:01:36;6.87;;;5.65;;
14342;SDS011;7255;53.596;9.960;2022-08-21T04:04:03;8.02;;;6.18;;
14342;SDS011;7255;53.596;9.960;2022-08-21T04:06:31;7.40;;;6.45;;
14342;SDS011;7255;53.596;9.960;2022-08-21T04:08:58;8.93;;;6.22;;
14342;SDS011;7255;53.596;9.960;2022-08-21T04:11:24;7.68;;;5.78;;
14342;SDS011;7255;53.596;9.960;2022-08-21T04:13:51;9.30;;;5.75;;
14342;SDS011;7255;53.596;9.960;2022-08-21T04:16:18;6.75;;;5.72;;
14342;SDS011;7255;53.596;9.960;2022-08-21T04:18:44;7.93;;;5.72;;
14342;SDS011;7255;53.596;9.960;2022-08-21T04:21:10;7.30;;;6.18;;
14342;SDS011;7255;53.596;9.960;2022-08-21T04:23:37;6.62;;;5.95;;
14342;SDS011;7255;53.596;9.960;2022-08-21T04:26:03;9.30;;;6.32;;
14342;SDS011;7255;53.596;9.960;2022-08-21T04:28:31;8.85;;;6.22;;
14342;SDS011;7255;53.596;9.960;2022-08-21T04:30:59;8.65;;;6.20;;
14342;SDS011;7255;53.596;9.960;2022-08-21T04:33:25;6.20;;;5.55;;
14342;SDS011;7255;53.596;9.960;2022-08-21T04:35:51;6.60;;;5.75;;
14342;SDS011;7255;53.596;9.960;2022-08-21T04:38:18;6.82;;;5.57;;
14342;SDS011;7255;53.596;9.960;2022-08-21T04:40:45;6.55;;;5.75;;
14342;SDS011;7255;53.596;9.960;2022-08-21T04:43:11;6.43;;;5.87;;
14342;SDS011;7255;53.596;9.960;2022-08-21T04:45:39;9.40;;;5.78;;
14342;SDS011;7255;53.596;9.960;2022-08-21T04:48:09;6.62;;;5.25;;
14342;SDS011;7255;53.596;9.960;2022-08-21T04:50:37;6.25;;;5.40;;
14342;SDS011;7255;53.596;9.960;2022-08-21T04:53:08;5.65;;;4.97;;
14342;SDS011;7255;53.596;9.960;2022-08-21T04:55:38;7.75;;;5.05;;
14342;SDS011;7255;53.596;9.960;2022-08-21T04:58:05;5.43;;;4.85;;
14342;SDS011;7255;53.596;9.960;2022-08-21T05:00:34;7.40;;;5.05;;
14342;SDS011;7255;53.596;9.960;2022-08-21T05:03:00;9.10;;;5.15;;
14342;SDS011;7255;53.596;9.960;2022-08-21T05:05:30;7.97;;;4.85;;
14342;SDS011;7255;53.596;9.960;2022-08-21T05:07:57;7.10;;;5.35;;
14342;SDS011;7255;53.596;9.960;2022-08-21T05:10:26;7.07;;;4.90;;
14342;SDS011;7255;53.596;9.960;2022-08-21T05:12:53;6.45;;;4.95;;
14342;SDS011;7255;53.596;9.960;2022-08-21T05:15:20;4.87;;;4.40;;
14342;SDS011;7255;53.596;9.960;2022-08-21T05:17:46;5.32;;;4.57;;
14342;SDS011;7255;53.596;9.960;2022-08-21T05:20:13;5.62;;;4.85;;
14342;SDS011;7255;53.596;9.960;2022-08-21T05:22:41;6.25;;;4.65;;
14342;SDS011;7255;53.596;9.960;2022-08-21T05:25:08;6.82;;;4.65;;
14342;SDS011;7255;53.596;9.960;2022-08-21T05:27:35;7.32;;;4.78;;
14342;SDS011;7255;53.596;9.960;2022-08-21T05:30:02;6.97;;;4.95;;
14342;SDS011;7255;53.596;9.960;2022-08-21T05:32:29;6.53;;;4.82;;
14342;SDS011;7255;53.596;9.960;2022-08-21T05:34:56;5.15;;;4.65;;
14342;SDS011;7255;53.596;9.960;2022-08-21T05:37:22;6.85;;;4.72;;
14342;SDS011;7255;53.596;9.960;2022-08-21T05:39:50;6.53;;;4.37;;
14342;SDS011;7255;53.596;9.960;2022-08-21T05:42:16;6.10;;;4.53;;
14342;SDS011;7255;53.596;9.960;2022-08-21T05:44:42;5.90;;;4.40;;
14342;SDS011;7255;53.596;9.960;2022-08-21T05:47:09;6.85;;;4.82;;
14342;SDS011;7255;53.596;9.960;2022-08-21T05:49:37;5.75;;;4.37;;
14342;SDS011;7255;53.596;9.960;2022-08-21T05:52:03;5.40;;;4.28;;
14342;SDS011;7255;53.596;9.960;2022-08-21T05:54:30;4.57;;;4.18;;
14342;SDS011;7255;53.596;9.960;2022-08-21T05:56:57;8.20;;;4.78;;
14342;SDS011;7255;53.596;9.960;2022-08-21T05:59:24;5.30;;;4.37;;
14342;SDS011;7255;53.596;9.960;2022-08-21T06:01:50;5.72;;;4.25;;
14342;SDS011;7255;53.596;9.960;2022-08-21T06:04:17;5.03;;;4.25;;
14342;SDS011;7255;53.596;9.960;2022-08-21T06:06:44;5.90;;;4.45;;
14342;SDS011;7255;53.596;9.960;2022-08-21T06:09:11;4.68;;;4.07;;
14342;SDS011;7255;53.596;9.960;2022-08-21T06:11:37;6.15;;;3.72;;
14342;SDS011;7255;53.596;9.960;2022-08-21T06:14:05;6.47;;;4.85;;
14342;SDS011;7255;53.596;9.960;2022-08-21T06:16:32;7.15;;;5.05;;
14342;SDS011;7255;53.596;9.960;2022-08-21T06:18:58;6.12;;;4.50;;
14342;SDS011;7255;53.596;9.960;2022-08-21T06:21:25;6.53;;;4.20;;
14342;SDS011;7255;53.596;9.960;2022-08-21T06:23:51;4.93;;;4.30;;
14342;SDS011;7255;53.596;9.960;2022-08-21T06:26:17;5.68;;;4.28;;
14342;SDS011;7255;53.596;9.960;2022-08-21T06:28:45;5.43;;;3.85;;
14342;SDS011;7255;53.596;9.960;2022-08-21T06:31:14;6.68;;;4.28;;
14342;SDS011;7255;53.596;9.960;2022-08-21T06:33:43;5.87;;;3.62;;
14342;SDS011;7255;53.596;9.960;2022-08-21T06:36:10;4.82;;;3.05;;
14342;SDS011;7255;53.596;9.960;2022-08-21T06:38:36;5.07;;;3.15;;
14342;SDS011;7255;53.596;9.960;2022-08-21T06:41:03;3.72;;;2.97;;
14342;SDS011;7255;53.596;9.960;2022-08-21T06:43:30;6.00;;;3.05;;
14342;SDS011;7255;53.596;9.960;2022-08-21T06:45:56;4.60;;;2.60;;
14342;SDS011;7255;53.596;9.960;2022-08-21T06:48:24;4.70;;;2.92;;
14342;SDS011;7255;53.596;9.960;2022-08-21T06:50:51;5.47;;;3.03;;
14342;SDS011;7255;53.596;9.960;2022-08-21T06:53:18;7.82;;;2.90;;
14342;SDS011;7255;53.596;9.960;2022-08-21T06:55:46;5.87;;;2.80;;
14342;SDS011;7255;53.596;9.960;2022-08-21T06:58:13;3.85;;;2.50;;
14342;SDS011;7255;53.596;9.960;2022-08-21T07:00:41;5.60;;;2.50;;
14342;SDS011;7255;53.596;9.960;2022-08-21T07:03:15;5.65;;;2.62;;
14342;SDS011;7255;53.596;9.960;2022-08-21T07:05:44;4.25;;;2.37;;
14342;SDS011;7255;53.596;9.960;2022-08-21T07:08:10;4.65;;;2.40;;
14342;SDS011;7255;53.596;9.960;2022-08-21T07:10:36;3.25;;;2.30;;
14342;SDS011;7255;53.596;9.960;2022-08-21T07:13:02;6.07;;;2.60;;
14342;SDS011;7255;53.596;9.960;2022-08-21T07:15:29;5.03;;;2.47;;
14342;SDS011;7255;53.596;9.960;2022-08-21T07:17:55;5.10;;;2.33;;
14342;SDS011;7255;53.596;9.960;2022-08-21T07:20:22;5.65;;;2.62;;
14342;SDS011;7255;53.596;9.960;2022-08-21T07:22:49;5.75;;;2.45;;
14342;SDS011;7255;53.596;9.960;2022-08-21T07:25:16;5.70;;;2.92;;
14342;SDS011;7255;53.596;9.960;2022-08-21T07:27:42;3.67;;;2.55;;
14342;SDS011;7255;53.596;9.960;2022-08-21T07:30:09;6.03;;;2.45;;
14342;SDS011;7255;53.596;9.960;2022-08-21T07:32:36;5.20;;;2.55;;
14342;SDS011;7255;53.596;9.960;2022-08-21T07:35:02;6.28;;;2.80;;
14342;SDS011;7255;53.596;9.960;2022-08-21T07:37:29;3.70;;;2.55;;
14342;SDS011;7255;53.596;9.960;2022-08-21T07:39:57;3.85;;;2.00;;
14342;SDS011;7255;53.596;9.960;2022-08-21T07:42:23;5.90;;;2.72;;
14342;SDS011;7255;53.596;9.960;2022-08-21T07:44:50;4.93;;;2.20;;
14342;SDS011;7255;53.596;9.960;2022-08-21T07:47:16;6.43;;;2.80;;
14342;SDS011;7255;53.596;9.960;2022-08-21T07:49:42;4.72;;;2.55;;
14342;SDS011;7255;53.596;9.960;2022-08-21T07:52:09;5.50;;;2.22;;
14342;SDS011;7255;53.596;9.960;2022-08-21T07:54:35;4.50;;;2.50;;
14342;SDS011;7255;53.596;9.960;2022-08-21T07:57:03;5.72;;;2.83;;
14342;SDS011;7255;53.596;9.960;2022-08-21T07:59:30;5.65;;;2.30;;
14342;SDS011;7255;53.596;9.960;2022-08-21T08:01:56;3.85;;;2.20;;
14342;SDS011;7255;53.596;9.960;2022-08-21T08:04:22;6.15;;;2.53;;
14342;SDS011;7255;53.596;9.960;2022-08-21T08:06:49;7.90;;;2.80;;
14342;SDS011;7255;53.596;9.960;2022-08-21T08:09:15;10.45;;;2.58;;
14342;SDS011;7255;53.596;9.960;2022-08-21T08:11:42;5.65;;;2.70;;
14342;SDS011;7255;53.596;9.960;2022-08-21T08:14:10;4.80;;;2.62;;
14342;SDS011;7255;53.596;9.960;2022-08-21T08:16:37;4.97;;;2.30;;
14342;SDS011;7255;53.596;9.960;2022-08-21T08:19:03;5.95;;;2.53;;
14342;SDS011;7255;53.596;9.960;2022-08-21T08:21:29;6.78;;;1.73;;
14342;SDS011;7255;53.596;9.960;2022-08-21T08:23:57;5.15;;;2.08;;
14342;SDS011;7255;53.596;9.960;2022-08-21T08:26:24;4.62;;;1.90;;
14342;SDS011;7255;53.596;9.960;2022-08-21T08:28:50;2.58;;;1.80;;
14342;SDS011;7255;53.596;9.960;2022-08-21T08:31:18;7.87;;;2.20;;
14342;SDS011;7255;53.596;9.960;2022-08-21T08:33:44;4.62;;;1.85;;
14342;SDS011;7255;53.596;9.960;2022-08-21T08:36:14;4.97;;;2.22;;
14342;SDS011;7255;53.596;9.960;2022-08-21T08:38:42;5.10;;;2.12;;
14342;SDS011;7255;53.596;9.960;2022-08-21T08:41:10;3.28;;;1.70;;
14342;SDS011;7255;53.596;9.960;2022-08-21T08:43:38;5.60;;;2.03;;
14342;SDS011;7255;53.596;9.960;2022-08-21T08:46:09;6.22;;;2.08;;
14342;SDS011;7255;53.596;9.960;2022-08-21T08:48:41;2.60;;;1.90;;
14342;SDS011;7255;53.596;9.960;2022-08-21T08:51:13;5.50;;;2.37;;
14342;SDS011;7255;53.596;9.960;2022-08-21T08:53:45;5.80;;;1.90;;
14342;SDS011;7255;53.596;9.960;2022-08-21T08:56:18;7.32;;;2.37;;
14342;SDS011;7255;53.596;9.960;2022-08-21T08:58:47;5.62;;;2.17;;
14342;SDS011;7255;53.596;9.960;2022-08-21T09:01:17;7.75;;;2.92;;
14342;SDS011;7255;53.596;9.960;2022-08-21T09:03:46;4.25;;;2.20;;
14342;SDS011;7255;53.596;9.960;2022-08-21T09:06:18;5.80;;;1.92;;
14342;SDS011;7255;53.596;9.960;2022-08-21T09:08:57;3.60;;;2.00;;
14342;SDS011;7255;53.596;9.960;2022-08-21T09:11:29;5.00;;;2.35;;
14342;SDS011;7255;53.596;9.960;2022-08-21T09:14:05;4.07;;;1.90;;
14342;SDS011;7255;53.596;9.960;2022-08-21T09:16:45;5.43;;;2.30;;
14342;SDS011;7255;53.596;9.960;2022-08-21T09:19:23;4.90;;;3.05;;
14342;SDS011;7255;53.596;9.960;2022-08-21T09:22:02;7.47;;;2.30;;
14342;SDS011;7255;53.596;9.960;2022-08-21T09:24:38;10.02;;;2.75;;
14342;SDS011;7255;53.596;9.960;2022-08-21T09:27:12;5.90;;;2.60;;
14342;SDS011;7255;53.596;9.960;2022-08-21T09:29:41;5.43;;;2.10;;
14342;SDS011;7255;53.596;9.960;2022-08-21T09:32:10;8.45;;;3.03;;
14342;SDS011;7255;53.596;9.960;2022-08-21T09:34:43;4.57;;;2.67;;
14342;SDS011;7255;53.596;9.960;2022-08-21T09:37:22;5.65;;;2.40;;
14342;SDS011;7255;53.596;9.960;2022-08-21T09:39:48;5.43;;;2.35;;
14342;SDS011;7255;53.596;9.960;2022-08-21T09:42:20;4.87;;;2.42;;
14342;SDS011;7255;53.596;9.960;2022-08-21T09:44:48;7.35;;;2.50;;
14342;SDS011;7255;53.596;9.960;2022-08-21T09:47:18;5.47;;;2.10;;
14342;SDS011;7255;53.596;9.960;2022-08-21T09:49:47;7.10;;;2.40;;
14342;SDS011;7255;53.596;9.960;2022-08-21T09:52:16;7.72;;;2.53;;
14342;SDS011;7255;53.596;9.960;2022-08-21T09:54:45;6.03;;;2.42;;
14342;SDS011;7255;53.596;9.960;2022-08-21T09:57:12;8.13;;;2.80;;
14342;SDS011;7255;53.596;9.960;2022-08-21T10:00:07;6.20;;;2.83;;
14342;SDS011;7255;53.596;9.960;2022-08-21T10:02:36;7.22;;;2.20;;
14342;SDS011;7255;53.596;9.960;2022-08-21T10:05:07;6.72;;;2.65;;
14342;SDS011;7255;53.596;9.960;2022-08-21T10:07:41;4.82;;;2.90;;
14342;SDS011;7255;53.596;9.960;2022-08-21T10:10:08;6.87;;;2.70;;
14342;SDS011;7255;53.596;9.960;2022-08-21T10:12:43;7.20;;;2.30;;
14342;SDS011;7255;53.596;9.960;2022-08-21T10:15:17;6.50;;;2.30;;
14342;SDS011;7255;53.596;9.960;2022-08-21T10:17:52;6.37;;;2.37;;
14342;SDS011;7255;53.596;9.960;2022-08-21T10:20:31;3.80;;;2.42;;
14342;SDS011;7255;53.596;9.960;2022-08-21T10:23:07;4.95;;;1.98;;
14342;SDS011;7255;53.596;9.960;2022-08-21T10:25:46;2.75;;;2.22;;
14342;SDS011;7255;53.596;9.960;2022-08-21T10:28:20;3.70;;;2.25;;
14342;SDS011;7255;53.596;9.960;2022-08-21T10:30:56;6.93;;;2.35;;
14342;SDS011;7255;53.596;9.960;2022-08-21T10:33:28;6.28;;;2.30;;
14342;SDS011;7255;53.596;9.960;2022-08-21T10:36:05;6.10;;;2.22;;
14342;SDS011;7255;53.596;9.960;2022-08-21T10:38:45;5.32;;;2.30;;
14342;SDS011;7255;53.596;9.960;2022-08-21T10:41:21;4.87;;;2.17;;
14342;SDS011;7255;53.596;9.960;2022-08-21T10:43:57;4.35;;;2.08;;
14342;SDS011;7255;53.596;9.960;2022-08-21T10:46:34;6.87;;;2.00;;
14342;SDS011;7255;53.596;9.960;2022-08-21T10:49:09;4.43;;;2.03;;
14342;SDS011;7255;53.596;9.960;2022-08-21T10:51:50;4.95;;;2.00;;
14342;SDS011;7255;53.596;9.960;2022-08-21T10:54:29;4.12;;;2.10;;
14342;SDS011;7255;53.596;9.960;2022-08-21T10:57:06;3.47;;;1.83;;
14342;SDS011;7255;53.596;9.960;2022-08-21T10:59:38;5.32;;;2.12;;
14342;SDS011;7255;53.596;9.960;2022-08-21T11:02:09;5.50;;;2.15;;
14342;SDS011;7255;53.596;9.960;2022-08-21T11:04:48;3.50;;;2.05;;
14342;SDS011;7255;53.596;9.960;2022-08-21T11:07:22;3.17;;;1.80;;
14342;SDS011;7255;53.596;9.960;2022-08-21T11:09:55;4.62;;;2.00;;
14342;SDS011;7255;53.596;9.960;2022-08-21T11:12:24;4.68;;;1.70;;
14342;SDS011;7255;53.596;9.960;2022-08-21T11:15:01;3.00;;;1.65;;
14342;SDS011;7255;53.596;9.960;2022-08-21T11:17:32;3.62;;;1.90;;
14342;SDS011;7255;53.596;9.960;2022-08-21T11:20:03;2.25;;;1.48;;
14342;SDS011;7255;53.596;9.960;2022-08-21T11:22:37;3.97;;;1.58;;
14342;SDS011;7255;53.596;9.960;2022-08-21T11:25:07;3.35;;;1.70;;
14342;SDS011;7255;53.596;9.960;2022-08-21T11:27:41;3.95;;;1.87;;
14342;SDS011;7255;53.596;9.960;2022-08-21T11:30:11;3.72;;;2.15;;
14342;SDS011;7255;53.596;9.960;2022-08-21T11:32:43;4.43;;;1.70;;
14342;SDS011;7255;53.596;9.960;2022-08-21T11:35:22;5.05;;;2.08;;
14342;SDS011;7255;53.596;9.960;2022-08-21T11:38:00;2.33;;;1.50;;
14342;SDS011;7255;53.596;9.960;2022-08-21T11:40:42;1.73;;;1.30;;
14342;SDS011;7255;53.596;9.960;2022-08-21T11:43:19;2.92;;;1.90;;
14342;SDS011;7255;53.596;9.960;2022-08-21T11:45:53;4.25;;;1.83;;
14342;SDS011;7255;53.596;9.960;2022-08-21T11:48:28;2.67;;;1.50;;
14342;SDS011;7255;53.596;9.960;2022-08-21T11:51:06;3.25;;;1.62;;
14342;SDS011;7255;53.596;9.960;2022-08-21T11:53:39;3.90;;;1.73;;
14342;SDS011;7255;53.596;9.960;2022-08-21T11:56:16;2.65;;;1.90;;
14342;SDS011;7255;53.596;9.960;2022-08-21T11:58:49;1.83;;;1.60;;
14342;SDS011;7255;53.596;9.960;2022-08-21T12:01:20;5.00;;;1.67;;
14342;SDS011;7255;53.596;9.960;2022-08-21T12:03:51;2.67;;;1.65;;
14342;SDS011;7255;53.596;9.960;2022-08-21T12:06:28;2.80;;;1.80;;
14342;SDS011;7255;53.596;9.960;2022-08-21T12:09:02;4.93;;;1.77;;
14342;SDS011;7255;53.596;9.960;2022-08-21T12:11:31;3.47;;;1.70;;
14342;SDS011;7255;53.596;9.960;2022-08-21T12:13:59;2.87;;;1.60;;
14342;SDS011;7255;53.596;9.960;2022-08-21T12:16:37;4.45;;;1.75;;
14342;SDS011;7255;53.596;9.960;2022-08-21T12:19:06;3.05;;;1.48;;
14342;SDS011;7255;53.596;9.960;2022-08-21T12:21:47;3.08;;;1.77;;
14342;SDS011;7255;53.596;9.960;2022-08-21T12:24:18;4.75;;;2.28;;
14342;SDS011;7255;53.596;9.960;2022-08-21T12:26:59;3.10;;;1.55;;
14342;SDS011;7255;53.596;9.960;2022-08-21T12:29:27;4.15;;;1.17;;
14342;SDS011;7255;53.596;9.960;2022-08-21T12:31:57;3.33;;;1.67;;
14342;SDS011;7255;53.596;9.960;2022-08-21T12:34:30;4.43;;;1.95;;
14342;SDS011;7255;53.596;9.960;2022-08-21T12:37:02;3.92;;;1.50;;
14342;SDS011;7255;53.596;9.960;2022-08-21T12:39:33;3.25;;;1.62;;
14342;SDS011;7255;53.596;9.960;2022-08-21T12:42:05;3.70;;;1.70;;
14342;SDS011;7255;53.596;9.960;2022-08-21T12:44:39;3.83;;;1.65;;
14342;SDS011;7255;53.596;9.960;2022-08-21T12:47:15;2.67;;;1.20;;
14342;SDS011;7255;53.596;9.960;2022-08-21T12:49:46;2.78;;;1.60;;
14342;SDS011;7255;53.596;9.960;2022-08-21T12:52:19;3.55;;;1.87;;
14342;SDS011;7255;53.596;9.960;2022-08-21T12:54:49;3.65;;;1.50;;
14342;SDS011;7255;53.596;9.960;2022-08-21T12:57:19;2.67;;;1.33;;
14342;SDS011;7255;53.596;9.960;2022-08-21T12:59:51;2.25;;;1.60;;
14342;SDS011;7255;53.596;9.960;2022-08-21T13:02:19;2.90;;;1.67;;
14342;SDS011;7255;53.596;9.960;2022-08-21T13:04:49;3.83;;;1.67;;
14342;SDS011;7255;53.596;9.960;2022-08-21T13:07:16;2.70;;;1.55;;
14342;SDS011;7255;53.596;9.960;2022-08-21T13:09:52;2.40;;;1.12;;
14342;SDS011;7255;53.596;9.960;2022-08-21T13:12:20;2.05;;;1.30;;
14342;SDS011;7255;53.596;9.960;2022-08-21T13:14:49;3.50;;;1.92;;
14342;SDS011;7255;53.596;9.960;2022-08-21T13:17:18;3.05;;;1.48;;
14342;SDS011;7255;53.596;9.960;2022-08-21T13:19:52;3.15;;;1.05;;
14342;SDS011;7255;53.596;9.960;2022-08-21T13:22:23;1.77;;;1.33;;
14342;SDS011;7255;53.596;9.960;2022-08-21T13:24:52;3.47;;;1.80;;
14342;SDS011;7255;53.596;9.960;2022-08-21T13:27:21;3.58;;;1.50;;
14342;SDS011;7255;53.596;9.960;2022-08-21T13:30:00;2.30;;;1.23;;
14342;SDS011;7255;53.596;9.960;2022-08-21T13:32:28;1.77;;;1.40;;
14342;SDS011;7255;53.596;9.960;2022-08-21T13:34:57;2.25;;;1.23;;
14342;SDS011;7255;53.596;9.960;2022-08-21T13:37:24;3.25;;;1.30;;
14342;SDS011;7255;53.596;9.960;2022-08-21T13:39:54;3.20;;;1.58;;
14342;SDS011;7255;53.596;9.960;2022-08-21T13:42:20;3.62;;;1.12;;
14342;SDS011;7255;53.596;9.960;2022-08-21T13:44:50;2.15;;;1.10;;
14342;SDS011;7255;53.596;9.960;2022-08-21T13:47:19;3.70;;;1.37;;
14342;SDS011;7255;53.596;9.960;2022-08-21T13:49:46;1.87;;;1.30;;
14342;SDS011;7255;53.596;9.960;2022-08-21T13:52:15;6.47;;;5.87;;
14342;SDS011;7255;53.596;9.960;2022-08-21T13:54:44;2.92;;;1.40;;
14342;SDS011;7255;53.596;9.960;2022-08-21T13:57:25;1.50;;;1.10;;
14342;SDS011;7255;53.596;9.960;2022-08-21T13:59:52;3.12;;;1.27;;
14342;SDS011;7255;53.596;9.960;2022-08-21T14:02:19;1.98;;;1.10;;
14342;SDS011;7255;53.596;9.960;2022-08-21T14:04:50;4.18;;;1.37;;
14342;SDS011;7255;53.596;9.960;2022-08-21T14:07:21;3.45;;;1.48;;
14342;SDS011;7255;53.596;9.960;2022-08-21T14:09:53;2.03;;;1.20;;
14342;SDS011;7255;53.596;9.960;2022-08-21T14:12:24;2.67;;;1.45;;
14342;SDS011;7255;53.596;9.960;2022-08-21T14:14:54;4.07;;;1.30;;
14342;SDS011;7255;53.596;9.960;2022-08-21T14:17:26;3.70;;;1.70;;
14342;SDS011;7255;53.596;9.960;2022-08-21T14:19:54;3.67;;;1.58;;
14342;SDS011;7255;53.596;9.960;2022-08-21T14:22:21;2.05;;;1.27;;
14342;SDS011;7255;53.596;9.960;2022-08-21T14:24:58;2.45;;;1.42;;
14342;SDS011;7255;53.596;9.960;2022-08-21T14:27:27;3.05;;;1.50;;
14342;SDS011;7255;53.596;9.960;2022-08-21T14:29:57;4.00;;;1.42;;
14342;SDS011;7255;53.596;9.960;2022-08-21T14:32:27;2.62;;;1.15;;
14342;SDS011;7255;53.596;9.960;2022-08-21T14:34:55;3.20;;;1.55;;
14342;SDS011;7255;53.596;9.960;2022-08-21T14:37:22;6.05;;;1.55;;
14342;SDS011;7255;53.596;9.960;2022-08-21T14:39:49;3.95;;;1.33;;
14342;SDS011;7255;53.596;9.960;2022-08-21T14:42:15;3.97;;;1.80;;
14342;SDS011;7255;53.596;9.960;2022-08-21T14:44:43;1.80;;;1.17;;
14342;SDS011;7255;53.596;9.960;2022-08-21T14:47:10;3.30;;;1.27;;
14342;SDS011;7255;53.596;9.960;2022-08-21T14:49:36;3.72;;;1.30;;
14342;SDS011;7255;53.596;9.960;2022-08-21T14:52:03;3.22;;;1.30;;
14342;SDS011;7255;53.596;9.960;2022-08-21T14:54:30;2.15;;;1.30;;
14342;SDS011;7255;53.596;9.960;2022-08-21T14:56:58;6.62;;;1.65;;
14342;SDS011;7255;53.596;9.960;2022-08-21T14:59:27;3.08;;;1.45;;
14342;SDS011;7255;53.596;9.960;2022-08-21T15:01:55;3.28;;;1.42;;
14342;SDS011;7255;53.596;9.960;2022-08-21T15:04:22;4.22;;;1.40;;
14342;SDS011;7255;53.596;9.960;2022-08-21T15:06:48;2.92;;;1.40;;
14342;SDS011;7255;53.596;9.960;2022-08-21T15:09:14;2.87;;;1.10;;
14342;SDS011;7255;53.596;9.960;2022-08-21T15:11:41;1.50;;;1.20;;